Hampton, Kentucky
Current Conditions -  °F | °C
As of 3:15 PM on Sunday 23 Nov 2014 (Local Time) from K5M9 Reporting Station
Light Rain Light Rain  
Wind Chill: 55°   Ceiling: 600
Heat Index: 55°   Visibility: 7mi
Dew Point: 55°   Wind: 10mph
Humidity: 99%   Direction: 120°ESE
Pressure: 29.38"   Gusts: 18mph
Location:  37.28°N, 88.37°W
Report Text: K5M9 232115Z AUTO 12009G16KT 7SM -RA BKN006 OVC010 13/13 A2938 RMK AO2 T01280126
Loading
Personal Weather Stations






























Interactive Weather Map New forecast layout! Learn more

10-Day Weather Forecast

Advertisements
Track Severe Weather on mobile